sensor_id;sensor_type;location;lat;lon;timestamp;temperature;humidity
35690;DHT22;26977;44.830;-0.674;2023-02-15T00:00:13;6.10;99.90
35690;DHT22;26977;44.830;-0.674;2023-02-15T00:02:39;6.10;99.90
35690;DHT22;26977;44.830;-0.674;2023-02-15T00:05:05;6.10;99.90
35690;DHT22;26977;44.830;-0.674;2023-02-15T00:07:31;6.00;99.90
35690;DHT22;26977;44.830;-0.674;2023-02-15T00:09:58;6.10;99.90
35690;DHT22;26977;44.830;-0.674;2023-02-15T00:12:23;6.00;99.90
35690;DHT22;26977;44.830;-0.674;2023-02-15T00:14:50;6.00;99.90
35690;DHT22;26977;44.830;-0.674;2023-02-15T00:17:16;6.10;99.90
35690;DHT22;26977;44.830;-0.674;2023-02-15T00:19:42;6.20;99.90
35690;DHT22;26977;44.830;-0.674;2023-02-15T00:22:08;6.20;99.90
35690;DHT22;26977;44.830;-0.674;2023-02-15T00:24:34;6.20;99.90
35690;DHT22;26977;44.830;-0.674;2023-02-15T00:26:59;6.30;99.90
35690;DHT22;26977;44.830;-0.674;2023-02-15T00:29:25;6.40;99.90
35690;DHT22;26977;44.830;-0.674;2023-02-15T00:32:04;6.50;99.90
35690;DHT22;26977;44.830;-0.674;2023-02-15T00:34:30;6.50;99.90
35690;DHT22;26977;44.830;-0.674;2023-02-15T00:36:56;6.50;99.90
35690;DHT22;26977;44.830;-0.674;2023-02-15T00:39:22;6.60;99.90
35690;DHT22;26977;44.830;-0.674;2023-02-15T00:41:49;6.60;99.90
35690;DHT22;26977;44.830;-0.674;2023-02-15T00:44:15;6.60;99.90
35690;DHT22;26977;44.830;-0.674;2023-02-15T00:46:41;6.60;99.90
35690;DHT22;26977;44.830;-0.674;2023-02-15T00:49:29;6.60;99.90
35690;DHT22;26977;44.830;-0.674;2023-02-15T00:51:55;6.60;99.90
35690;DHT22;26977;44.830;-0.674;2023-02-15T00:54:20;6.60;99.90
35690;DHT22;26977;44.830;-0.674;2023-02-15T00:56:47;6.60;99.90
35690;DHT22;26977;44.830;-0.674;2023-02-15T00:59:13;6.50;99.90
35690;DHT22;26977;44.830;-0.674;2023-02-15T01:01:39;6.50;99.90
35690;DHT22;26977;44.830;-0.674;2023-02-15T01:04:08;6.50;99.90
35690;DHT22;26977;44.830;-0.674;2023-02-15T01:06:34;6.60;99.90
35690;DHT22;26977;44.830;-0.674;2023-02-15T01:09:00;6.60;99.90
35690;DHT22;26977;44.830;-0.674;2023-02-15T01:11:26;6.60;99.90
35690;DHT22;26977;44.830;-0.674;2023-02-15T01:13:55;6.70;99.90
35690;DHT22;26977;44.830;-0.674;2023-02-15T01:16:22;6.80;99.90
35690;DHT22;26977;44.830;-0.674;2023-02-15T01:18:48;6.90;99.90
35690;DHT22;26977;44.830;-0.674;2023-02-15T01:21:16;6.90;99.90
35690;DHT22;26977;44.830;-0.674;2023-02-15T01:23:42;6.80;99.90
35690;DHT22;26977;44.830;-0.674;2023-02-15T01:26:10;6.90;99.90
35690;DHT22;26977;44.830;-0.674;2023-02-15T01:28:36;6.90;99.90
35690;DHT22;26977;44.830;-0.674;2023-02-15T01:31:08;6.90;99.90
35690;DHT22;26977;44.830;-0.674;2023-02-15T01:33:36;6.90;99.90
35690;DHT22;26977;44.830;-0.674;2023-02-15T01:36:02;6.90;99.90
35690;DHT22;26977;44.830;-0.674;2023-02-15T01:38:34;6.80;99.90
35690;DHT22;26977;44.830;-0.674;2023-02-15T01:41:01;6.70;99.90
35690;DHT22;26977;44.830;-0.674;2023-02-15T01:44:00;6.70;99.90
35690;DHT22;26977;44.830;-0.674;2023-02-15T01:46:40;6.70;99.90
35690;DHT22;26977;44.830;-0.674;2023-02-15T01:49:16;6.70;99.90
35690;DHT22;26977;44.830;-0.674;2023-02-15T01:51:53;6.80;99.90
35690;DHT22;26977;44.830;-0.674;2023-02-15T01:54:25;6.70;99.90
35690;DHT22;26977;44.830;-0.674;2023-02-15T01:56:56;6.70;99.90
35690;DHT22;26977;44.830;-0.674;2023-02-15T01:59:25;6.70;99.90
35690;DHT22;26977;44.830;-0.674;2023-02-15T02:01:52;6.70;99.90
35690;DHT22;26977;44.830;-0.674;2023-02-15T02:04:24;6.70;99.90
35690;DHT22;26977;44.830;-0.674;2023-02-15T02:06:53;6.80;99.90
35690;DHT22;26977;44.830;-0.674;2023-02-15T02:09:21;6.80;99.90
35690;DHT22;26977;44.830;-0.674;2023-02-15T02:11:47;6.80;99.90
35690;DHT22;26977;44.830;-0.674;2023-02-15T02:14:13;6.80;99.90
35690;DHT22;26977;44.830;-0.674;2023-02-15T02:25:12;6.60;99.90
35690;DHT22;26977;44.830;-0.674;2023-02-15T02:30:35;6.60;99.90
35690;DHT22;26977;44.830;-0.674;2023-02-15T02:38:36;6.50;99.90
35690;DHT22;26977;44.830;-0.674;2023-02-15T02:41:20;6.50;99.90
35690;DHT22;26977;44.830;-0.674;2023-02-15T02:46:58;6.60;99.90
35690;DHT22;26977;44.830;-0.674;2023-02-15T02:49:43;6.60;99.90
35690;DHT22;26977;44.830;-0.674;2023-02-15T02:52:50;6.60;99.90
35690;DHT22;26977;44.830;-0.674;2023-02-15T02:58:31;6.60;99.90
35690;DHT22;26977;44.830;-0.674;2023-02-15T03:01:11;6.60;99.90
35690;DHT22;26977;44.830;-0.674;2023-02-15T03:03:47;6.50;99.90
35690;DHT22;26977;44.830;-0.674;2023-02-15T03:06:55;6.50;99.90
35690;DHT22;26977;44.830;-0.674;2023-02-15T03:09:31;6.50;99.90
35690;DHT22;26977;44.830;-0.674;2023-02-15T03:12:11;6.50;99.90
35690;DHT22;26977;44.830;-0.674;2023-02-15T03:14:40;6.50;99.90
35690;DHT22;26977;44.830;-0.674;2023-02-15T03:17:09;6.60;99.90
35690;DHT22;26977;44.830;-0.674;2023-02-15T03:19:38;6.60;99.90
35690;DHT22;26977;44.830;-0.674;2023-02-15T03:25:34;6.50;99.90
35690;DHT22;26977;44.830;-0.674;2023-02-15T03:27:55;6.60;99.90
35690;DHT22;26977;44.830;-0.674;2023-02-15T03:30:25;6.50;99.90
35690;DHT22;26977;44.830;-0.674;2023-02-15T03:32:53;6.40;99.90
35690;DHT22;26977;44.830;-0.674;2023-02-15T03:35:25;6.40;99.90
35690;DHT22;26977;44.830;-0.674;2023-02-15T03:38:00;6.40;99.90
35690;DHT22;26977;44.830;-0.674;2023-02-15T03:40:34;6.40;99.90
35690;DHT22;26977;44.830;-0.674;2023-02-15T03:43:49;6.30;99.90
35690;DHT22;26977;44.830;-0.674;2023-02-15T03:46:21;6.40;99.90
35690;DHT22;26977;44.830;-0.674;2023-02-15T03:48:52;6.40;99.90
35690;DHT22;26977;44.830;-0.674;2023-02-15T03:51:22;6.40;99.90
35690;DHT22;26977;44.830;-0.674;2023-02-15T03:54:12;6.40;99.90
35690;DHT22;26977;44.830;-0.674;2023-02-15T03:56:41;6.30;99.90
35690;DHT22;26977;44.830;-0.674;2023-02-15T03:59:07;6.30;99.90
35690;DHT22;26977;44.830;-0.674;2023-02-15T04:01:59;6.30;99.90
35690;DHT22;26977;44.830;-0.674;2023-02-15T04:04:36;6.30;99.90
35690;DHT22;26977;44.830;-0.674;2023-02-15T04:07:03;6.30;99.90
35690;DHT22;26977;44.830;-0.674;2023-02-15T04:09:31;6.40;99.90
35690;DHT22;26977;44.830;-0.674;2023-02-15T04:12:25;6.30;99.90
35690;DHT22;26977;44.830;-0.674;2023-02-15T04:14:53;6.30;99.90
35690;DHT22;26977;44.830;-0.674;2023-02-15T04:17:37;6.30;99.90
35690;DHT22;26977;44.830;-0.674;2023-02-15T04:20:25;6.30;99.90
35690;DHT22;26977;44.830;-0.674;2023-02-15T04:23:10;6.30;99.90
35690;DHT22;26977;44.830;-0.674;2023-02-15T04:25:54;6.30;99.90
35690;DHT22;26977;44.830;-0.674;2023-02-15T04:28:20;6.30;99.90
35690;DHT22;26977;44.830;-0.674;2023-02-15T04:30:47;6.40;99.90
35690;DHT22;26977;44.830;-0.674;2023-02-15T04:33:12;6.40;99.90
35690;DHT22;26977;44.830;-0.674;2023-02-15T04:35:38;6.50;99.90
35690;DHT22;26977;44.830;-0.674;2023-02-15T04:38:04;6.50;99.90
35690;DHT22;26977;44.830;-0.674;2023-02-15T04:40:29;6.40;99.90
35690;DHT22;26977;44.830;-0.674;2023-02-15T04:42:58;6.40;99.90
35690;DHT22;26977;44.830;-0.674;2023-02-15T04:45:24;6.30;99.90
35690;DHT22;26977;44.830;-0.674;2023-02-15T04:47:49;6.30;99.90
35690;DHT22;26977;44.830;-0.674;2023-02-15T04:50:26;6.40;99.90
35690;DHT22;26977;44.830;-0.674;2023-02-15T04:52:52;6.40;99.90
35690;DHT22;26977;44.830;-0.674;2023-02-15T04:55:21;6.50;99.90
35690;DHT22;26977;44.830;-0.674;2023-02-15T04:57:46;6.40;99.90
35690;DHT22;26977;44.830;-0.674;2023-02-15T05:00:12;6.40;99.90
35690;DHT22;26977;44.830;-0.674;2023-02-15T05:02:42;6.40;99.90
35690;DHT22;26977;44.830;-0.674;2023-02-15T05:05:18;6.40;99.90
35690;DHT22;26977;44.830;-0.674;2023-02-15T05:07:44;6.40;99.90
35690;DHT22;26977;44.830;-0.674;2023-02-15T05:10:10;6.40;99.90
35690;DHT22;26977;44.830;-0.674;2023-02-15T05:12:38;6.50;99.90
35690;DHT22;26977;44.830;-0.674;2023-02-15T05:15:05;6.40;99.90
35690;DHT22;26977;44.830;-0.674;2023-02-15T05:17:34;6.40;99.90
35690;DHT22;26977;44.830;-0.674;2023-02-15T05:20:01;6.40;99.90
35690;DHT22;26977;44.830;-0.674;2023-02-15T05:22:26;6.40;99.90
35690;DHT22;26977;44.830;-0.674;2023-02-15T05:24:55;6.40;99.90
35690;DHT22;26977;44.830;-0.674;2023-02-15T05:27:40;6.40;99.90
35690;DHT22;26977;44.830;-0.674;2023-02-15T05:30:24;6.30;99.90
35690;DHT22;26977;44.830;-0.674;2023-02-15T05:32:50;6.30;99.90
35690;DHT22;26977;44.830;-0.674;2023-02-15T05:35:17;6.30;99.90
35690;DHT22;26977;44.830;-0.674;2023-02-15T05:37:43;6.30;99.90
35690;DHT22;26977;44.830;-0.674;2023-02-15T05:40:10;6.30;99.90
35690;DHT22;26977;44.830;-0.674;2023-02-15T05:42:36;6.30;99.90
35690;DHT22;26977;44.830;-0.674;2023-02-15T05:45:02;6.30;99.90
35690;DHT22;26977;44.830;-0.674;2023-02-15T05:47:29;6.30;99.90
35690;DHT22;26977;44.830;-0.674;2023-02-15T05:49:55;6.30;99.90
35690;DHT22;26977;44.830;-0.674;2023-02-15T05:52:20;6.20;99.90
35690;DHT22;26977;44.830;-0.674;2023-02-15T05:54:56;6.20;99.90
35690;DHT22;26977;44.830;-0.674;2023-02-15T05:57:23;6.30;99.90
35690;DHT22;26977;44.830;-0.674;2023-02-15T05:59:51;6.30;99.90
35690;DHT22;26977;44.830;-0.674;2023-02-15T06:02:17;6.30;99.90
35690;DHT22;26977;44.830;-0.674;2023-02-15T06:04:58;6.30;99.90
35690;DHT22;26977;44.830;-0.674;2023-02-15T06:07:25;6.30;99.90
35690;DHT22;26977;44.830;-0.674;2023-02-15T06:09:51;6.30;99.90
35690;DHT22;26977;44.830;-0.674;2023-02-15T06:12:17;6.30;99.90
35690;DHT22;26977;44.830;-0.674;2023-02-15T06:14:46;6.20;99.90
35690;DHT22;26977;44.830;-0.674;2023-02-15T06:17:13;6.20;99.90
35690;DHT22;26977;44.830;-0.674;2023-02-15T06:19:38;6.20;99.90
35690;DHT22;26977;44.830;-0.674;2023-02-15T06:22:15;6.20;99.90
35690;DHT22;26977;44.830;-0.674;2023-02-15T06:24:40;6.20;99.90
35690;DHT22;26977;44.830;-0.674;2023-02-15T06:27:09;6.20;99.90
35690;DHT22;26977;44.830;-0.674;2023-02-15T06:29:53;6.20;99.90
35690;DHT22;26977;44.830;-0.674;2023-02-15T06:32:19;6.20;99.90
35690;DHT22;26977;44.830;-0.674;2023-02-15T06:34:44;6.20;99.90
35690;DHT22;26977;44.830;-0.674;2023-02-15T06:37:10;6.20;99.90
35690;DHT22;26977;44.830;-0.674;2023-02-15T06:39:36;6.20;99.90
35690;DHT22;26977;44.830;-0.674;2023-02-15T06:42:01;6.20;99.90
35690;DHT22;26977;44.830;-0.674;2023-02-15T06:44:27;6.20;99.90
35690;DHT22;26977;44.830;-0.674;2023-02-15T06:46:53;6.20;99.90
35690;DHT22;26977;44.830;-0.674;2023-02-15T06:49:18;6.20;99.90
35690;DHT22;26977;44.830;-0.674;2023-02-15T06:51:44;6.20;99.90
35690;DHT22;26977;44.830;-0.674;2023-02-15T06:54:09;6.10;99.90
35690;DHT22;26977;44.830;-0.674;2023-02-15T06:56:38;6.10;99.90
35690;DHT22;26977;44.830;-0.674;2023-02-15T06:59:04;6.10;99.90
35690;DHT22;26977;44.830;-0.674;2023-02-15T07:01:30;6.10;99.90
35690;DHT22;26977;44.830;-0.674;2023-02-15T07:03:55;6.10;99.90
35690;DHT22;26977;44.830;-0.674;2023-02-15T07:06:21;6.10;99.90
35690;DHT22;26977;44.830;-0.674;2023-02-15T07:08:47;6.10;99.90
35690;DHT22;26977;44.830;-0.674;2023-02-15T07:11:12;6.10;99.90
35690;DHT22;26977;44.830;-0.674;2023-02-15T07:13:56;6.10;99.90
35690;DHT22;26977;44.830;-0.674;2023-02-15T07:16:22;6.10;99.90
35690;DHT22;26977;44.830;-0.674;2023-02-15T07:18:48;6.00;99.90
35690;DHT22;26977;44.830;-0.674;2023-02-15T07:21:13;6.00;99.90
35690;DHT22;26977;44.830;-0.674;2023-02-15T07:23:39;6.00;99.90
35690;DHT22;26977;44.830;-0.674;2023-02-15T07:26:06;6.00;99.90
35690;DHT22;26977;44.830;-0.674;2023-02-15T07:28:33;5.90;99.90
35690;DHT22;26977;44.830;-0.674;2023-02-15T07:31:02;5.90;99.90
35690;DHT22;26977;44.830;-0.674;2023-02-15T07:33:29;5.90;99.90
35690;DHT22;26977;44.830;-0.674;2023-02-15T07:35:59;5.90;99.90
35690;DHT22;26977;44.830;-0.674;2023-02-15T07:38:31;5.90;99.90
35690;DHT22;26977;44.830;-0.674;2023-02-15T07:41:01;6.00;99.90
35690;DHT22;26977;44.830;-0.674;2023-02-15T07:43:28;6.00;99.90
35690;DHT22;26977;44.830;-0.674;2023-02-15T07:45:58;6.10;99.90
35690;DHT22;26977;44.830;-0.674;2023-02-15T07:48:24;6.10;99.90
35690;DHT22;26977;44.830;-0.674;2023-02-15T07:50:49;6.10;99.90
35690;DHT22;26977;44.830;-0.674;2023-02-15T07:53:15;6.10;99.90
35690;DHT22;26977;44.830;-0.674;2023-02-15T07:55:41;6.10;99.90
35690;DHT22;26977;44.830;-0.674;2023-02-15T07:58:06;6.20;99.90
35690;DHT22;26977;44.830;-0.674;2023-02-15T08:00:32;6.20;99.90
35690;DHT22;26977;44.830;-0.674;2023-02-15T08:03:18;6.30;99.90
35690;DHT22;26977;44.830;-0.674;2023-02-15T08:05:44;6.30;99.90
35690;DHT22;26977;44.830;-0.674;2023-02-15T08:08:11;6.30;99.90
35690;DHT22;26977;44.830;-0.674;2023-02-15T08:19:08;6.40;99.90
35690;DHT22;26977;44.830;-0.674;2023-02-15T08:21:37;6.40;99.90
35690;DHT22;26977;44.830;-0.674;2023-02-15T08:24:04;6.40;99.90
35690;DHT22;26977;44.830;-0.674;2023-02-15T08:26:31;6.40;99.90
35690;DHT22;26977;44.830;-0.674;2023-02-15T08:28:57;6.40;99.90
35690;DHT22;26977;44.830;-0.674;2023-02-15T08:31:24;6.40;99.90
35690;DHT22;26977;44.830;-0.674;2023-02-15T08:33:51;6.50;99.90
35690;DHT22;26977;44.830;-0.674;2023-02-15T08:36:20;6.50;99.90
35690;DHT22;26977;44.830;-0.674;2023-02-15T08:38:46;6.50;99.90
35690;DHT22;26977;44.830;-0.674;2023-02-15T08:41:16;6.60;99.90
35690;DHT22;26977;44.830;-0.674;2023-02-15T08:43:43;6.70;99.90
35690;DHT22;26977;44.830;-0.674;2023-02-15T08:46:10;6.80;99.90
35690;DHT22;26977;44.830;-0.674;2023-02-15T08:48:37;6.80;99.90
35690;DHT22;26977;44.830;-0.674;2023-02-15T08:53:37;7.00;99.90
35690;DHT22;26977;44.830;-0.674;2023-02-15T08:56:03;7.00;99.90
35690;DHT22;26977;44.830;-0.674;2023-02-15T08:58:29;7.10;99.90
35690;DHT22;26977;44.830;-0.674;2023-02-15T09:00:56;7.20;99.90
35690;DHT22;26977;44.830;-0.674;2023-02-15T09:03:22;7.20;99.90
35690;DHT22;26977;44.830;-0.674;2023-02-15T09:05:48;7.20;99.90
35690;DHT22;26977;44.830;-0.674;2023-02-15T09:08:14;7.40;99.90
35690;DHT22;26977;44.830;-0.674;2023-02-15T09:10:40;7.50;99.90
35690;DHT22;26977;44.830;-0.674;2023-02-15T09:13:06;7.60;99.90
35690;DHT22;26977;44.830;-0.674;2023-02-15T09:15:32;7.70;99.90
35690;DHT22;26977;44.830;-0.674;2023-02-15T09:17:58;7.70;99.90
35690;DHT22;26977;44.830;-0.674;2023-02-15T09:20:27;7.80;99.90
35690;DHT22;26977;44.830;-0.674;2023-02-15T09:22:53;7.90;99.90
35690;DHT22;26977;44.830;-0.674;2023-02-15T09:25:19;8.00;99.90
35690;DHT22;26977;44.830;-0.674;2023-02-15T09:27:45;8.20;99.90
35690;DHT22;26977;44.830;-0.674;2023-02-15T09:30:11;8.30;99.90
35690;DHT22;26977;44.830;-0.674;2023-02-15T09:32:37;8.30;99.90
35690;DHT22;26977;44.830;-0.674;2023-02-15T09:35:03;8.40;99.90
35690;DHT22;26977;44.830;-0.674;2023-02-15T09:37:30;8.50;99.90
35690;DHT22;26977;44.830;-0.674;2023-02-15T09:39:57;8.50;99.90
35690;DHT22;26977;44.830;-0.674;2023-02-15T09:53:40;9.00;99.90
35690;DHT22;26977;44.830;-0.674;2023-02-15T10:04:34;9.40;99.90
35690;DHT22;26977;44.830;-0.674;2023-02-15T10:12:49;9.60;99.90
35690;DHT22;26977;44.830;-0.674;2023-02-15T10:15:37;9.70;99.90
35690;DHT22;26977;44.830;-0.674;2023-02-15T10:24:08;9.90;99.90
35690;DHT22;26977;44.830;-0.674;2023-02-15T10:26:46;10.10;99.90
35690;DHT22;26977;44.830;-0.674;2023-02-15T10:29:35;10.20;99.90
35690;DHT22;26977;44.830;-0.674;2023-02-15T10:34:52;10.40;99.90
35690;DHT22;26977;44.830;-0.674;2023-02-15T10:45:56;10.70;99.90
35690;DHT22;26977;44.830;-0.674;2023-02-15T10:51:10;10.90;99.90
35690;DHT22;26977;44.830;-0.674;2023-02-15T11:07:28;11.60;99.90
35690;DHT22;26977;44.830;-0.674;2023-02-15T11:10:14;11.70;99.90
35690;DHT22;26977;44.830;-0.674;2023-02-15T11:12:48;11.70;99.90
35690;DHT22;26977;44.830;-0.674;2023-02-15T11:15:29;11.80;99.90
35690;DHT22;26977;44.830;-0.674;2023-02-15T11:18:08;11.90;99.90
35690;DHT22;26977;44.830;-0.674;2023-02-15T11:20:56;12.00;99.90
35690;DHT22;26977;44.830;-0.674;2023-02-15T11:23:25;12.20;99.90
35690;DHT22;26977;44.830;-0.674;2023-02-15T11:32:01;12.30;99.90
35690;DHT22;26977;44.830;-0.674;2023-02-15T11:34:44;12.30;99.90
35690;DHT22;26977;44.830;-0.674;2023-02-15T11:37:18;12.40;99.90
35690;DHT22;26977;44.830;-0.674;2023-02-15T11:39:44;12.60;99.90
35690;DHT22;26977;44.830;-0.674;2023-02-15T11:42:19;12.60;99.90
35690;DHT22;26977;44.830;-0.674;2023-02-15T11:45:07;12.70;99.90
35690;DHT22;26977;44.830;-0.674;2023-02-15T11:47:43;12.70;99.90
35690;DHT22;26977;44.830;-0.674;2023-02-15T11:50:18;12.90;99.90
35690;DHT22;26977;44.830;-0.674;2023-02-15T11:52:48;13.00;99.90
35690;DHT22;26977;44.830;-0.674;2023-02-15T11:55:19;13.00;99.90
35690;DHT22;26977;44.830;-0.674;2023-02-15T11:57:54;13.20;99.90
35690;DHT22;26977;44.830;-0.674;2023-02-15T12:00:31;13.20;99.90
35690;DHT22;26977;44.830;-0.674;2023-02-15T12:03:24;13.30;99.90
35690;DHT22;26977;44.830;-0.674;2023-02-15T12:05:56;13.30;99.90
35690;DHT22;26977;44.830;-0.674;2023-02-15T12:11:49;13.60;99.90
35690;DHT22;26977;44.830;-0.674;2023-02-15T12:14:15;13.70;99.90
35690;DHT22;26977;44.830;-0.674;2023-02-15T12:16:54;13.80;99.90
35690;DHT22;26977;44.830;-0.674;2023-02-15T12:19:28;13.90;99.10
35690;DHT22;26977;44.830;-0.674;2023-02-15T12:21:56;13.90;99.50
35690;DHT22;26977;44.830;-0.674;2023-02-15T12:24:26;14.00;98.50
35690;DHT22;26977;44.830;-0.674;2023-02-15T12:27:05;14.10;99.40
35690;DHT22;26977;44.830;-0.674;2023-02-15T12:30:16;14.20;99.00
35690;DHT22;26977;44.830;-0.674;2023-02-15T12:32:56;14.50;97.80
35690;DHT22;26977;44.830;-0.674;2023-02-15T12:35:33;14.60;98.70
35690;DHT22;26977;44.830;-0.674;2023-02-15T12:38:05;14.70;99.10
35690;DHT22;26977;44.830;-0.674;2023-02-15T12:40:32;14.70;98.20
35690;DHT22;26977;44.830;-0.674;2023-02-15T12:42:59;14.70;97.50
35690;DHT22;26977;44.830;-0.674;2023-02-15T12:45:32;14.80;98.50
35690;DHT22;26977;44.830;-0.674;2023-02-15T12:51:16;15.10;96.80
35690;DHT22;26977;44.830;-0.674;2023-02-15T12:53:42;15.20;96.80
35690;DHT22;26977;44.830;-0.674;2023-02-15T12:56:09;15.30;96.10
35690;DHT22;26977;44.830;-0.674;2023-02-15T12:58:39;15.40;96.90
35690;DHT22;26977;44.830;-0.674;2023-02-15T13:01:19;15.60;95.90
35690;DHT22;26977;44.830;-0.674;2023-02-15T13:03:59;15.70;94.20
35690;DHT22;26977;44.830;-0.674;2023-02-15T13:06:27;15.70;93.90
35690;DHT22;26977;44.830;-0.674;2023-02-15T13:08:59;15.90;93.20
35690;DHT22;26977;44.830;-0.674;2023-02-15T13:11:31;16.00;92.40
35690;DHT22;26977;44.830;-0.674;2023-02-15T13:14:13;16.00;92.10
35690;DHT22;26977;44.830;-0.674;2023-02-15T13:16:50;16.20;90.10
35690;DHT22;26977;44.830;-0.674;2023-02-15T13:19:40;16.30;88.70
35690;DHT22;26977;44.830;-0.674;2023-02-15T13:22:33;16.50;89.10
35690;DHT22;26977;44.830;-0.674;2023-02-15T13:24:58;16.60;89.20
35690;DHT22;26977;44.830;-0.674;2023-02-15T13:27:38;16.90;87.70
35690;DHT22;26977;44.830;-0.674;2023-02-15T13:30:22;17.10;82.60
35690;DHT22;26977;44.830;-0.674;2023-02-15T13:32:51;17.20;79.90
35690;DHT22;26977;44.830;-0.674;2023-02-15T13:35:18;17.20;80.90
35690;DHT22;26977;44.830;-0.674;2023-02-15T13:38:35;17.20;79.20
35690;DHT22;26977;44.830;-0.674;2023-02-15T13:41:11;17.40;78.80
35690;DHT22;26977;44.830;-0.674;2023-02-15T13:52:04;17.60;76.90
35690;DHT22;26977;44.830;-0.674;2023-02-15T13:58:16;17.90;79.00
35690;DHT22;26977;44.830;-0.674;2023-02-15T14:01:10;18.00;77.90
35690;DHT22;26977;44.830;-0.674;2023-02-15T14:12:26;18.30;75.90
35690;DHT22;26977;44.830;-0.674;2023-02-15T14:25:31;21.00;68.70
35690;DHT22;26977;44.830;-0.674;2023-02-15T14:30:38;21.80;68.20
35690;DHT22;26977;44.830;-0.674;2023-02-15T14:35:53;23.20;65.40
35690;DHT22;26977;44.830;-0.674;2023-02-15T14:38:36;23.40;65.70
35690;DHT22;26977;44.830;-0.674;2023-02-15T14:41:12;23.30;64.10
35690;DHT22;26977;44.830;-0.674;2023-02-15T14:48:53;23.00;62.90
35690;DHT22;26977;44.830;-0.674;2023-02-15T15:02:20;22.60;61.30
35690;DHT22;26977;44.830;-0.674;2023-02-15T15:05:06;22.50;62.70
35690;DHT22;26977;44.830;-0.674;2023-02-15T15:12:54;22.40;59.70
35690;DHT22;26977;44.830;-0.674;2023-02-15T15:18:08;22.40;60.50
35690;DHT22;26977;44.830;-0.674;2023-02-15T15:25:44;22.60;60.70
35690;DHT22;26977;44.830;-0.674;2023-02-15T15:31:41;22.50;60.50
35690;DHT22;26977;44.830;-0.674;2023-02-15T15:34:38;22.20;60.30
35690;DHT22;26977;44.830;-0.674;2023-02-15T15:37:45;21.80;60.90
35690;DHT22;26977;44.830;-0.674;2023-02-15T15:48:33;22.30;60.50
35690;DHT22;26977;44.830;-0.674;2023-02-15T15:53:40;22.50;61.80
35690;DHT22;26977;44.830;-0.674;2023-02-15T15:56:13;22.40;61.20
35690;DHT22;26977;44.830;-0.674;2023-02-15T15:58:44;22.70;61.00
35690;DHT22;26977;44.830;-0.674;2023-02-15T16:01:10;22.60;60.70
35690;DHT22;26977;44.830;-0.674;2023-02-15T16:03:49;22.30;61.20
35690;DHT22;26977;44.830;-0.674;2023-02-15T16:06:27;22.40;60.50
35690;DHT22;26977;44.830;-0.674;2023-02-15T16:08:53;22.30;61.00
35690;DHT22;26977;44.830;-0.674;2023-02-15T16:11:26;22.40;61.00
35690;DHT22;26977;44.830;-0.674;2023-02-15T16:13:54;22.10;60.00
35690;DHT22;26977;44.830;-0.674;2023-02-15T16:16:25;21.80;60.90
35690;DHT22;26977;44.830;-0.674;2023-02-15T16:18:57;21.60;61.70
35690;DHT22;26977;44.830;-0.674;2023-02-15T16:21:31;21.50;61.40
35690;DHT22;26977;44.830;-0.674;2023-02-15T16:27:27;20.90;62.20
35690;DHT22;26977;44.830;-0.674;2023-02-15T16:29:45;20.60;63.00
35690;DHT22;26977;44.830;-0.674;2023-02-15T16:32:22;20.20;62.40
35690;DHT22;26977;44.830;-0.674;2023-02-15T16:35:01;20.30;64.50
35690;DHT22;26977;44.830;-0.674;2023-02-15T16:37:36;20.30;64.10
35690;DHT22;26977;44.830;-0.674;2023-02-15T16:40:02;20.30;64.60
35690;DHT22;26977;44.830;-0.674;2023-02-15T16:42:28;20.40;64.30
35690;DHT22;26977;44.830;-0.674;2023-02-15T16:45:08;20.20;63.60
35690;DHT22;26977;44.830;-0.674;2023-02-15T16:47:39;20.40;64.60
35690;DHT22;26977;44.830;-0.674;2023-02-15T16:50:07;20.30;64.60
35690;DHT22;26977;44.830;-0.674;2023-02-15T16:52:43;20.50;65.10
35690;DHT22;26977;44.830;-0.674;2023-02-15T16:55:20;20.40;64.90
35690;DHT22;26977;44.830;-0.674;2023-02-15T16:57:47;19.70;64.90
35690;DHT22;26977;44.830;-0.674;2023-02-15T17:00:22;18.80;65.50
35690;DHT22;26977;44.830;-0.674;2023-02-15T17:02:57;18.10;67.90
35690;DHT22;26977;44.830;-0.674;2023-02-15T17:05:23;17.50;69.10
35690;DHT22;26977;44.830;-0.674;2023-02-15T17:08:13;17.00;70.60
35690;DHT22;26977;44.830;-0.674;2023-02-15T17:11:02;16.50;72.20
35690;DHT22;26977;44.830;-0.674;2023-02-15T17:13:28;16.20;72.60
35690;DHT22;26977;44.830;-0.674;2023-02-15T17:18:44;15.50;75.30
35690;DHT22;26977;44.830;-0.674;2023-02-15T17:21:19;15.20;77.10
35690;DHT22;26977;44.830;-0.674;2023-02-15T17:23:48;14.90;78.50
35690;DHT22;26977;44.830;-0.674;2023-02-15T17:26:18;14.50;80.10
35690;DHT22;26977;44.830;-0.674;2023-02-15T17:28:59;14.20;79.40
35690;DHT22;26977;44.830;-0.674;2023-02-15T17:31:29;14.00;81.50
35690;DHT22;26977;44.830;-0.674;2023-02-15T17:33:57;13.80;80.50
35690;DHT22;26977;44.830;-0.674;2023-02-15T17:36:33;13.80;82.10
35690;DHT22;26977;44.830;-0.674;2023-02-15T17:39:06;13.70;81.40
35690;DHT22;26977;44.830;-0.674;2023-02-15T17:41:44;13.80;81.40
35690;DHT22;26977;44.830;-0.674;2023-02-15T17:44:09;13.70;82.50
35690;DHT22;26977;44.830;-0.674;2023-02-15T17:46:39;13.40;82.30
35690;DHT22;26977;44.830;-0.674;2023-02-15T17:49:06;13.20;83.50
35690;DHT22;26977;44.830;-0.674;2023-02-15T17:51:32;13.10;84.70
35690;DHT22;26977;44.830;-0.674;2023-02-15T17:54:01;12.90;83.60
35690;DHT22;26977;44.830;-0.674;2023-02-15T17:56:45;12.70;85.10
35690;DHT22;26977;44.830;-0.674;2023-02-15T17:59:11;12.50;86.80
35690;DHT22;26977;44.830;-0.674;2023-02-15T18:01:44;12.20;87.90
35690;DHT22;26977;44.830;-0.674;2023-02-15T18:04:31;11.80;89.70
35690;DHT22;26977;44.830;-0.674;2023-02-15T18:07:17;11.50;90.40
35690;DHT22;26977;44.830;-0.674;2023-02-15T18:10:11;11.20;90.60
35690;DHT22;26977;44.830;-0.674;2023-02-15T18:12:58;11.10;91.20
35690;DHT22;26977;44.830;-0.674;2023-02-15T18:15:26;10.80;91.20
35690;DHT22;26977;44.830;-0.674;2023-02-15T18:17:52;10.60;91.20
35690;DHT22;26977;44.830;-0.674;2023-02-15T18:20:33;10.50;91.70
35690;DHT22;26977;44.830;-0.674;2023-02-15T18:23:01;10.30;91.80
35690;DHT22;26977;44.830;-0.674;2023-02-15T18:25:27;10.50;91.90
35690;DHT22;26977;44.830;-0.674;2023-02-15T18:27:52;10.80;91.50
35690;DHT22;26977;44.830;-0.674;2023-02-15T18:30:21;10.90;91.20
35690;DHT22;26977;44.830;-0.674;2023-02-15T18:32:49;11.10;90.90
35690;DHT22;26977;44.830;-0.674;2023-02-15T18:35:21;11.00;90.70
35690;DHT22;26977;44.830;-0.674;2023-02-15T18:37:58;10.70;91.40
35690;DHT22;26977;44.830;-0.674;2023-02-15T18:40:26;10.50;91.90
35690;DHT22;26977;44.830;-0.674;2023-02-15T18:42:52;10.20;92.10
35690;DHT22;26977;44.830;-0.674;2023-02-15T18:45:21;9.90;92.70
35690;DHT22;26977;44.830;-0.674;2023-02-15T18:47:49;9.70;93.20
35690;DHT22;26977;44.830;-0.674;2023-02-15T18:50:18;9.50;93.20
35690;DHT22;26977;44.830;-0.674;2023-02-15T18:52:48;9.30;93.70
35690;DHT22;26977;44.830;-0.674;2023-02-15T18:55:22;9.20;93.90
35690;DHT22;26977;44.830;-0.674;2023-02-15T18:57:58;9.40;94.00
35690;DHT22;26977;44.830;-0.674;2023-02-15T19:00:29;9.50;93.60
35690;DHT22;26977;44.830;-0.674;2023-02-15T19:02:56;9.60;93.70
35690;DHT22;26977;44.830;-0.674;2023-02-15T19:05:23;9.60;93.50
35690;DHT22;26977;44.830;-0.674;2023-02-15T19:07:50;9.40;93.50